sensor_id;sensor_type;location;lat;lon;timestamp;pressure;altitude;pressure_sealevel;temperature;humidity
70954;BME280;58618;47.490;8.736;2023-03-20T00:02:24;96836.75;;;7.04;100.00
70954;BME280;58618;47.490;8.736;2023-03-20T00:05:17;96838.19;;;6.95;100.00
70954;BME280;58618;47.490;8.736;2023-03-20T00:08:06;96847.09;;;7.14;100.00
70954;BME280;58618;47.490;8.736;2023-03-20T00:10:54;96847.75;;;7.27;100.00
70954;BME280;58618;47.490;8.736;2023-03-20T00:13:42;96849.25;;;7.22;100.00
70954;BME280;58618;47.490;8.736;2023-03-20T00:16:31;96846.75;;;7.28;100.00
70954;BME280;58618;47.490;8.736;2023-03-20T00:19:21;96841.66;;;7.33;100.00
70954;BME280;58618;47.490;8.736;2023-03-20T00:22:09;96837.81;;;7.35;100.00
70954;BME280;58618;47.490;8.736;2023-03-20T00:24:57;96846.59;;;7.39;100.00
70954;BME280;58618;47.490;8.736;2023-03-20T00:27:45;96849.81;;;7.30;100.00
70954;BME280;58618;47.490;8.736;2023-03-20T00:30:32;96848.28;;;7.29;100.00
70954;BME280;58618;47.490;8.736;2023-03-20T00:33:20;96852.34;;;7.25;100.00
70954;BME280;58618;47.490;8.736;2023-03-20T00:36:08;96842.47;;;7.11;100.00
70954;BME280;58618;47.490;8.736;2023-03-20T00:38:55;96842.97;;;7.08;100.00
70954;BME280;58618;47.490;8.736;2023-03-20T00:41:48;96839.81;;;7.01;100.00
70954;BME280;58618;47.490;8.736;2023-03-20T00:44:38;96826.38;;;6.94;100.00
70954;BME280;58618;47.490;8.736;2023-03-20T00:47:27;96842.13;;;7.03;100.00
70954;BME280;58618;47.490;8.736;2023-03-20T00:50:18;96833.66;;;7.02;100.00
70954;BME280;58618;47.490;8.736;2023-03-20T00:53:08;96835.88;;;7.20;100.00
70954;BME280;58618;47.490;8.736;2023-03-20T00:55:56;96845.19;;;7.27;100.00
70954;BME280;58618;47.490;8.736;2023-03-20T00:58:44;96839.75;;;7.50;100.00
70954;BME280;58618;47.490;8.736;2023-03-20T01:01:32;96836.22;;;7.56;100.00
70954;BME280;58618;47.490;8.736;2023-03-20T01:04:19;96842.28;;;7.45;100.00
70954;BME280;58618;47.490;8.736;2023-03-20T01:07:11;96839.19;;;7.43;100.00
70954;BME280;58618;47.490;8.736;2023-03-20T01:09:59;96836.34;;;7.71;100.00
70954;BME280;58618;47.490;8.736;2023-03-20T01:12:47;96830.00;;;7.52;100.00
70954;BME280;58618;47.490;8.736;2023-03-20T01:15:35;96835.59;;;7.44;100.00
70954;BME280;58618;47.490;8.736;2023-03-20T01:18:24;96826.63;;;7.46;100.00
70954;BME280;58618;47.490;8.736;2023-03-20T01:21:12;96835.44;;;7.55;100.00
70954;BME280;58618;47.490;8.736;2023-03-20T01:23:59;96829.06;;;7.63;100.00
70954;BME280;58618;47.490;8.736;2023-03-20T01:26:47;96829.00;;;7.53;100.00
70954;BME280;58618;47.490;8.736;2023-03-20T01:29:36;96833.22;;;7.37;100.00
70954;BME280;58618;47.490;8.736;2023-03-20T01:32:25;96838.59;;;7.36;100.00
70954;BME280;58618;47.490;8.736;2023-03-20T01:35:14;96841.41;;;7.34;100.00
70954;BME280;58618;47.490;8.736;2023-03-20T01:38:01;96839.69;;;7.40;100.00
70954;BME280;58618;47.490;8.736;2023-03-20T01:40:53;96840.06;;;7.27;100.00
70954;BME280;58618;47.490;8.736;2023-03-20T01:43:43;96836.38;;;7.17;100.00
70954;BME280;58618;47.490;8.736;2023-03-20T01:46:32;96835.50;;;7.34;100.00
70954;BME280;58618;47.490;8.736;2023-03-20T01:52:49;96834.53;;;7.40;100.00
70954;BME280;58618;47.490;8.736;2023-03-20T01:55:40;96837.16;;;7.45;100.00
70954;BME280;58618;47.490;8.736;2023-03-20T01:58:32;96829.59;;;7.33;100.00
70954;BME280;58618;47.490;8.736;2023-03-20T02:01:23;96838.56;;;7.62;100.00
70954;BME280;58618;47.490;8.736;2023-03-20T02:04:13;96839.84;;;7.60;100.00
70954;BME280;58618;47.490;8.736;2023-03-20T02:07:02;96841.88;;;7.58;100.00
70954;BME280;58618;47.490;8.736;2023-03-20T02:09:52;96841.59;;;7.54;100.00
70954;BME280;58618;47.490;8.736;2023-03-20T02:12:40;96832.44;;;7.37;100.00
70954;BME280;58618;47.490;8.736;2023-03-20T02:15:29;96837.63;;;7.42;100.00
70954;BME280;58618;47.490;8.736;2023-03-20T02:18:16;96851.00;;;7.44;100.00
70954;BME280;58618;47.490;8.736;2023-03-20T02:21:41;96842.75;;;7.42;100.00
70954;BME280;58618;47.490;8.736;2023-03-20T02:24:48;96840.97;;;7.42;100.00
70954;BME280;58618;47.490;8.736;2023-03-20T02:27:50;96840.31;;;7.57;100.00
70954;BME280;58618;47.490;8.736;2023-03-20T02:30:55;96839.31;;;7.58;100.00
70954;BME280;58618;47.490;8.736;2023-03-20T02:34:13;96833.13;;;7.54;100.00
70954;BME280;58618;47.490;8.736;2023-03-20T02:40:42;96841.47;;;7.71;100.00
70954;BME280;58618;47.490;8.736;2023-03-20T02:43:41;96853.81;;;7.74;100.00
70954;BME280;58618;47.490;8.736;2023-03-20T02:46:35;96859.31;;;7.56;100.00
70954;BME280;58618;47.490;8.736;2023-03-20T02:49:40;96847.41;;;7.45;100.00
70954;BME280;58618;47.490;8.736;2023-03-20T02:52:33;96859.22;;;7.46;100.00
70954;BME280;58618;47.490;8.736;2023-03-20T02:55:28;96865.97;;;7.57;100.00
70954;BME280;58618;47.490;8.736;2023-03-20T02:58:22;96857.28;;;7.58;100.00
70954;BME280;58618;47.490;8.736;2023-03-20T03:01:15;96853.84;;;7.47;100.00
70954;BME280;58618;47.490;8.736;2023-03-20T03:04:08;96875.69;;;7.50;100.00
70954;BME280;58618;47.490;8.736;2023-03-20T03:06:56;96859.97;;;7.46;100.00
70954;BME280;58618;47.490;8.736;2023-03-20T03:09:47;96862.22;;;7.38;100.00
70954;BME280;58618;47.490;8.736;2023-03-20T03:12:39;96863.88;;;7.49;100.00
70954;BME280;58618;47.490;8.736;2023-03-20T03:15:31;96864.56;;;7.39;100.00
70954;BME280;58618;47.490;8.736;2023-03-20T03:18:22;96865.75;;;7.32;100.00
70954;BME280;58618;47.490;8.736;2023-03-20T03:21:12;96870.34;;;7.30;100.00
70954;BME280;58618;47.490;8.736;2023-03-20T03:24:02;96874.91;;;7.22;100.00
70954;BME280;58618;47.490;8.736;2023-03-20T03:26:50;96876.88;;;7.15;100.00
70954;BME280;58618;47.490;8.736;2023-03-20T03:29:39;96874.25;;;7.10;100.00
70954;BME280;58618;47.490;8.736;2023-03-20T03:32:31;96878.22;;;6.96;100.00
70954;BME280;58618;47.490;8.736;2023-03-20T03:35:20;96882.56;;;6.96;100.00
70954;BME280;58618;47.490;8.736;2023-03-20T03:38:22;96891.03;;;6.96;100.00
70954;BME280;58618;47.490;8.736;2023-03-20T03:41:18;96886.84;;;6.90;100.00
70954;BME280;58618;47.490;8.736;2023-03-20T03:44:12;96892.34;;;6.77;100.00
70954;BME280;58618;47.490;8.736;2023-03-20T03:47:04;96896.06;;;6.86;100.00
70954;BME280;58618;47.490;8.736;2023-03-20T03:49:59;96896.28;;;6.85;100.00
70954;BME280;58618;47.490;8.736;2023-03-20T03:52:49;96897.13;;;6.90;100.00
70954;BME280;58618;47.490;8.736;2023-03-20T03:55:41;96904.25;;;6.88;100.00
70954;BME280;58618;47.490;8.736;2023-03-20T03:58:32;96900.69;;;6.89;100.00
70954;BME280;58618;47.490;8.736;2023-03-20T04:01:22;96897.59;;;6.87;100.00
70954;BME280;58618;47.490;8.736;2023-03-20T04:04:13;96902.38;;;7.00;100.00
70954;BME280;58618;47.490;8.736;2023-03-20T04:07:03;96900.88;;;7.04;100.00
70954;BME280;58618;47.490;8.736;2023-03-20T04:09:50;96911.19;;;7.09;100.00
70954;BME280;58618;47.490;8.736;2023-03-20T04:12:39;96904.53;;;7.08;100.00
70954;BME280;58618;47.490;8.736;2023-03-20T04:15:27;96908.88;;;7.08;100.00
70954;BME280;58618;47.490;8.736;2023-03-20T04:18:16;96916.19;;;6.99;100.00
70954;BME280;58618;47.490;8.736;2023-03-20T04:21:04;96914.28;;;7.11;100.00
70954;BME280;58618;47.490;8.736;2023-03-20T04:23:53;96917.41;;;7.13;100.00
70954;BME280;58618;47.490;8.736;2023-03-20T04:26:40;96921.94;;;7.06;100.00
70954;BME280;58618;47.490;8.736;2023-03-20T04:29:28;96925.16;;;7.18;100.00
70954;BME280;58618;47.490;8.736;2023-03-20T04:32:15;96926.56;;;7.09;100.00
70954;BME280;58618;47.490;8.736;2023-03-20T04:35:03;96925.44;;;7.00;100.00
70954;BME280;58618;47.490;8.736;2023-03-20T04:37:51;96919.75;;;6.98;100.00
70954;BME280;58618;47.490;8.736;2023-03-20T04:40:39;96923.78;;;7.11;100.00
70954;BME280;58618;47.490;8.736;2023-03-20T04:43:27;96926.56;;;7.09;100.00
70954;BME280;58618;47.490;8.736;2023-03-20T04:46:14;96930.69;;;7.10;100.00
70954;BME280;58618;47.490;8.736;2023-03-20T04:49:01;96928.00;;;7.00;100.00
70954;BME280;58618;47.490;8.736;2023-03-20T04:51:48;96926.09;;;7.12;100.00
70954;BME280;58618;47.490;8.736;2023-03-20T04:54:36;96928.63;;;7.07;100.00
70954;BME280;58618;47.490;8.736;2023-03-20T04:57:25;96932.31;;;7.16;100.00
70954;BME280;58618;47.490;8.736;2023-03-20T05:00:14;96931.56;;;6.99;100.00
70954;BME280;58618;47.490;8.736;2023-03-20T05:03:02;96928.00;;;7.00;100.00
70954;BME280;58618;47.490;8.736;2023-03-20T05:05:49;96927.34;;;6.88;100.00
70954;BME280;58618;47.490;8.736;2023-03-20T05:08:36;96913.44;;;6.84;100.00
70954;BME280;58618;47.490;8.736;2023-03-20T05:11:24;96911.91;;;6.83;100.00
70954;BME280;58618;47.490;8.736;2023-03-20T05:14:13;96909.75;;;6.75;100.00
70954;BME280;58618;47.490;8.736;2023-03-20T05:17:00;96911.34;;;6.59;100.00
70954;BME280;58618;47.490;8.736;2023-03-20T05:19:47;96917.72;;;6.57;100.00
70954;BME280;58618;47.490;8.736;2023-03-20T05:22:35;96902.53;;;6.33;100.00
70954;BME280;58618;47.490;8.736;2023-03-20T05:25:22;96908.59;;;6.27;100.00
70954;BME280;58618;47.490;8.736;2023-03-20T05:28:09;96910.94;;;6.12;100.00
70954;BME280;58618;47.490;8.736;2023-03-20T05:30:58;96907.19;;;6.03;100.00
70954;BME280;58618;47.490;8.736;2023-03-20T05:33:46;96905.13;;;6.00;100.00
70954;BME280;58618;47.490;8.736;2023-03-20T05:36:33;96914.88;;;5.86;100.00
70954;BME280;58618;47.490;8.736;2023-03-20T05:39:20;96917.41;;;5.70;100.00
70954;BME280;58618;47.490;8.736;2023-03-20T05:42:08;96926.34;;;5.56;100.00
70954;BME280;58618;47.490;8.736;2023-03-20T05:44:55;96933.03;;;5.57;100.00
70954;BME280;58618;47.490;8.736;2023-03-20T05:47:44;96929.75;;;5.44;100.00
70954;BME280;58618;47.490;8.736;2023-03-20T05:50:31;96939.63;;;5.52;100.00
70954;BME280;58618;47.490;8.736;2023-03-20T05:53:19;96939.34;;;5.37;100.00
70954;BME280;58618;47.490;8.736;2023-03-20T05:56:07;96956.09;;;5.45;100.00
70954;BME280;58618;47.490;8.736;2023-03-20T05:58:54;96940.44;;;5.41;100.00
70954;BME280;58618;47.490;8.736;2023-03-20T06:01:42;96959.53;;;5.50;100.00
70954;BME280;58618;47.490;8.736;2023-03-20T06:04:30;96958.97;;;5.77;100.00
70954;BME280;58618;47.490;8.736;2023-03-20T06:07:18;96956.50;;;5.82;100.00
70954;BME280;58618;47.490;8.736;2023-03-20T06:10:06;96953.59;;;5.90;100.00
70954;BME280;58618;47.490;8.736;2023-03-20T06:12:53;96950.50;;;5.76;100.00
70954;BME280;58618;47.490;8.736;2023-03-20T06:15:41;96946.63;;;5.74;100.00
70954;BME280;58618;47.490;8.736;2023-03-20T06:18:28;96946.44;;;6.59;100.00
70954;BME280;58618;47.490;8.736;2023-03-20T06:21:17;96952.94;;;7.27;100.00
70954;BME280;58618;47.490;8.736;2023-03-20T06:24:05;96959.09;;;8.06;100.00
70954;BME280;58618;47.490;8.736;2023-03-20T06:26:52;96959.41;;;8.88;100.00
70954;BME280;58618;47.490;8.736;2023-03-20T06:29:40;96959.25;;;9.93;100.00
70954;BME280;58618;47.490;8.736;2023-03-20T06:32:27;96952.31;;;10.29;100.00
70954;BME280;58618;47.490;8.736;2023-03-20T06:35:14;96955.06;;;10.88;95.13
70954;BME280;58618;47.490;8.736;2023-03-20T06:38:04;96959.69;;;12.33;88.23
70954;BME280;58618;47.490;8.736;2023-03-20T06:40:51;96954.31;;;12.30;87.22
70954;BME280;58618;47.490;8.736;2023-03-20T06:43:39;96958.53;;;13.26;79.26
70954;BME280;58618;47.490;8.736;2023-03-20T06:46:28;96972.81;;;12.99;81.58
70954;BME280;58618;47.490;8.736;2023-03-20T06:49:15;96957.75;;;14.19;75.98
70954;BME280;58618;47.490;8.736;2023-03-20T06:52:02;96962.22;;;14.32;74.26
70954;BME280;58618;47.490;8.736;2023-03-20T06:54:51;96969.09;;;13.90;74.90
70954;BME280;58618;47.490;8.736;2023-03-20T06:57:38;96977.53;;;15.34;70.75
70954;BME280;58618;47.490;8.736;2023-03-20T07:00:26;96982.56;;;14.25;71.51
70954;BME280;58618;47.490;8.736;2023-03-20T07:03:14;96989.56;;;15.03;69.52
70954;BME280;58618;47.490;8.736;2023-03-20T07:06:01;96988.50;;;14.44;69.91
70954;BME280;58618;47.490;8.736;2023-03-20T07:08:49;96978.44;;;14.24;72.45
70954;BME280;58618;47.490;8.736;2023-03-20T07:11:39;96990.88;;;13.28;76.08
70954;BME280;58618;47.490;8.736;2023-03-20T07:14:26;96997.00;;;12.61;78.54
70954;BME280;58618;47.490;8.736;2023-03-20T07:17:14;96987.16;;;11.90;84.04
70954;BME280;58618;47.490;8.736;2023-03-20T07:20:01;96995.47;;;11.23;87.96
70954;BME280;58618;47.490;8.736;2023-03-20T07:22:49;96993.66;;;11.88;87.69
70954;BME280;58618;47.490;8.736;2023-03-20T07:25:36;96977.56;;;11.52;85.19
70954;BME280;58618;47.490;8.736;2023-03-20T07:28:25;96979.81;;;12.70;81.36
70954;BME280;58618;47.490;8.736;2023-03-20T07:31:18;96972.16;;;12.60;80.45
70954;BME280;58618;47.490;8.736;2023-03-20T07:34:06;96975.56;;;11.33;87.66
70954;BME280;58618;47.490;8.736;2023-03-20T07:36:54;96971.78;;;11.65;85.37
70954;BME280;58618;47.490;8.736;2023-03-20T07:39:41;96973.94;;;11.48;86.36
70954;BME280;58618;47.490;8.736;2023-03-20T07:42:28;96976.50;;;11.53;85.44
70954;BME280;58618;47.490;8.736;2023-03-20T07:45:17;96970.59;;;11.42;85.38
70954;BME280;58618;47.490;8.736;2023-03-20T07:48:05;96972.03;;;11.09;88.72
70954;BME280;58618;47.490;8.736;2023-03-20T07:50:52;96980.78;;;11.18;88.32
70954;BME280;58618;47.490;8.736;2023-03-20T07:53:40;96977.22;;;11.09;89.89
70954;BME280;58618;47.490;8.736;2023-03-20T07:56:27;96980.41;;;10.55;90.91
70954;BME280;58618;47.490;8.736;2023-03-20T07:59:14;96982.59;;;11.13;87.56
70954;BME280;58618;47.490;8.736;2023-03-20T08:02:03;96972.50;;;11.21;85.67
70954;BME280;58618;47.490;8.736;2023-03-20T08:04:50;96986.56;;;10.75;88.49
70954;BME280;58618;47.490;8.736;2023-03-20T08:07:38;96978.31;;;10.83;89.11
70954;BME280;58618;47.490;8.736;2023-03-20T08:10:25;96984.41;;;11.17;86.33
70954;BME280;58618;47.490;8.736;2023-03-20T08:13:12;96985.84;;;11.43;82.74
70954;BME280;58618;47.490;8.736;2023-03-20T08:16:00;96991.25;;;11.52;82.80
70954;BME280;58618;47.490;8.736;2023-03-20T08:18:49;96993.78;;;10.93;88.25
70954;BME280;58618;47.490;8.736;2023-03-20T08:21:38;96991.22;;;10.57;86.44
70954;BME280;58618;47.490;8.736;2023-03-20T08:24:25;96992.03;;;10.43;86.27
70954;BME280;58618;47.490;8.736;2023-03-20T08:27:12;96989.97;;;11.44;82.91
70954;BME280;58618;47.490;8.736;2023-03-20T08:30:00;96980.44;;;11.40;80.80
70954;BME280;58618;47.490;8.736;2023-03-20T08:32:47;96988.19;;;12.62;79.83
70954;BME280;58618;47.490;8.736;2023-03-20T08:35:36;96990.88;;;13.28;77.68
70954;BME280;58618;47.490;8.736;2023-03-20T08:38:24;96988.06;;;14.05;74.05
70954;BME280;58618;47.490;8.736;2023-03-20T08:41:11;96992.00;;;13.83;72.93
70954;BME280;58618;47.490;8.736;2023-03-20T08:43:59;96990.16;;;14.40;72.12
70954;BME280;58618;47.490;8.736;2023-03-20T08:46:46;96991.94;;;14.58;68.76
70954;BME280;58618;47.490;8.736;2023-03-20T08:49:33;96997.56;;;13.95;67.78
70954;BME280;58618;47.490;8.736;2023-03-20T08:52:23;96997.88;;;14.08;64.00
70954;BME280;58618;47.490;8.736;2023-03-20T08:55:13;96986.63;;;12.61;74.01
70954;BME280;58618;47.490;8.736;2023-03-20T08:58:01;96995.38;;;12.02;77.73
70954;BME280;58618;47.490;8.736;2023-03-20T09:00:48;96993.06;;;11.96;78.25
70954;BME280;58618;47.490;8.736;2023-03-20T09:03:36;96985.06;;;11.97;77.29
70954;BME280;58618;47.490;8.736;2023-03-20T09:06:23;96992.34;;;11.90;76.10
70954;BME280;58618;47.490;8.736;2023-03-20T09:09:12;97000.63;;;12.60;78.09
70954;BME280;58618;47.490;8.736;2023-03-20T09:12:00;97001.66;;;13.59;71.65
70954;BME280;58618;47.490;8.736;2023-03-20T09:14:48;96999.53;;;13.42;70.04
70954;BME280;58618;47.490;8.736;2023-03-20T09:17:35;97000.19;;;13.05;72.87
70954;BME280;58618;47.490;8.736;2023-03-20T09:20:23;97001.09;;;12.67;72.40
70954;BME280;58618;47.490;8.736;2023-03-20T09:23:10;96997.75;;;12.61;68.28
70954;BME280;58618;47.490;8.736;2023-03-20T09:25:59;96980.78;;;12.50;68.06
70954;BME280;58618;47.490;8.736;2023-03-20T09:28:46;96996.56;;;11.76;73.86
70954;BME280;58618;47.490;8.736;2023-03-20T09:31:33;96994.78;;;12.15;69.68
70954;BME280;58618;47.490;8.736;2023-03-20T09:34:21;96993.47;;;11.74;73.71
70954;BME280;58618;47.490;8.736;2023-03-20T09:37:09;96991.59;;;11.90;72.47
70954;BME280;58618;47.490;8.736;2023-03-20T09:39:56;96990.66;;;12.14;74.14
70954;BME280;58618;47.490;8.736;2023-03-20T09:42:52;96988.56;;;12.11;71.34
70954;BME280;58618;47.490;8.736;2023-03-20T09:45:48;96985.31;;;11.52;72.08
70954;BME280;58618;47.490;8.736;2023-03-20T09:48:40;96986.88;;;11.97;74.77
70954;BME280;58618;47.490;8.736;2023-03-20T09:51:35;96994.84;;;12.05;74.87
70954;BME280;58618;47.490;8.736;2023-03-20T09:54:26;96994.53;;;12.46;73.84
70954;BME280;58618;47.490;8.736;2023-03-20T09:57:18;96995.41;;;12.36;71.29
70954;BME280;58618;47.490;8.736;2023-03-20T10:00:12;96983.09;;;12.52;69.76
70954;BME280;58618;47.490;8.736;2023-03-20T10:03:03;96988.97;;;12.28;71.09
70954;BME280;58618;47.490;8.736;2023-03-20T10:05:55;96983.75;;;12.34;67.95
70954;BME280;58618;47.490;8.736;2023-03-20T10:08:45;96986.66;;;12.27;66.19
70954;BME280;58618;47.490;8.736;2023-03-20T10:14:57;96987.78;;;12.79;69.31
70954;BME280;58618;47.490;8.736;2023-03-20T10:17:53;96990.81;;;13.09;64.35
70954;BME280;58618;47.490;8.736;2023-03-20T10:20:53;96992.53;;;13.43;63.30
70954;BME280;58618;47.490;8.736;2023-03-20T10:23:44;96986.09;;;13.59;62.00
70954;BME280;58618;47.490;8.736;2023-03-20T10:26:35;96985.03;;;13.41;62.18
70954;BME280;58618;47.490;8.736;2023-03-20T10:29:31;96984.34;;;13.54;62.57
70954;BME280;58618;47.490;8.736;2023-03-20T10:32:27;96982.88;;;13.67;62.15
70954;BME280;58618;47.490;8.736;2023-03-20T10:35:22;96981.34;;;14.04;61.28
70954;BME280;58618;47.490;8.736;2023-03-20T10:38:22;96988.22;;;13.94;60.72
70954;BME280;58618;47.490;8.736;2023-03-20T10:41:15;96980.91;;;13.17;61.47
70954;BME280;58618;47.490;8.736;2023-03-20T10:44:04;96977.28;;;13.60;63.26
70954;BME280;58618;47.490;8.736;2023-03-20T10:46:54;96972.78;;;14.03;60.56
70954;BME280;58618;47.490;8.736;2023-03-20T10:49:46;96972.53;;;13.67;61.15
70954;BME280;58618;47.490;8.736;2023-03-20T10:52:39;96966.72;;;13.33;65.23
70954;BME280;58618;47.490;8.736;2023-03-20T10:55:30;96965.63;;;13.39;64.49
70954;BME280;58618;47.490;8.736;2023-03-20T10:58:20;96960.25;;;13.11;66.80
70954;BME280;58618;47.490;8.736;2023-03-20T11:01:08;96960.63;;;13.24;63.83
70954;BME280;58618;47.490;8.736;2023-03-20T11:03:56;96968.03;;;13.91;60.60
70954;BME280;58618;47.490;8.736;2023-03-20T11:06:47;96959.31;;;14.20;60.51
70954;BME280;58618;47.490;8.736;2023-03-20T11:09:38;96960.09;;;14.02;61.24
70954;BME280;58618;47.490;8.736;2023-03-20T11:12:31;96968.09;;;13.49;66.91
70954;BME280;58618;47.490;8.736;2023-03-20T11:15:22;96959.91;;;13.79;61.98
70954;BME280;58618;47.490;8.736;2023-03-20T11:18:11;96968.50;;;14.12;60.08
70954;BME280;58618;47.490;8.736;2023-03-20T11:21:01;96965.88;;;14.31;59.30
70954;BME280;58618;47.490;8.736;2023-03-20T11:23:48;96971.00;;;13.85;65.33
70954;BME280;58618;47.490;8.736;2023-03-20T11:26:39;96978.25;;;13.45;63.76
70954;BME280;58618;47.490;8.736;2023-03-20T11:29:29;96977.28;;;13.98;58.67
70954;BME280;58618;47.490;8.736;2023-03-20T11:32:26;96977.06;;;13.75;61.51
70954;BME280;58618;47.490;8.736;2023-03-20T11:35:19;96971.09;;;13.56;62.27
70954;BME280;58618;47.490;8.736;2023-03-20T11:38:09;96967.69;;;13.61;61.76
70954;BME280;58618;47.490;8.736;2023-03-20T11:41:03;96971.81;;;13.43;61.75
70954;BME280;58618;47.490;8.736;2023-03-20T11:43:53;96966.34;;;13.63;63.41
70954;BME280;58618;47.490;8.736;2023-03-20T11:46:40;96968.53;;;13.93;64.79
70954;BME280;58618;47.490;8.736;2023-03-20T11:49:28;96961.19;;;14.14;60.17
70954;BME280;58618;47.490;8.736;2023-03-20T11:52:19;96973.84;;;14.02;61.05
70954;BME280;58618;47.490;8.736;2023-03-20T11:55:23;96974.22;;;13.95;62.40
70954;BME280;58618;47.490;8.736;2023-03-20T11:58:15;96967.16;;;14.15;60.96
70954;BME280;58618;47.490;8.736;2023-03-20T12:01:07;96964.00;;;14.18;59.76
70954;BME280;58618;47.490;8.736;2023-03-20T12:04:00;96973.69;;;13.75;62.75
70954;BME280;58618;47.490;8.736;2023-03-20T12:06:52;96963.25;;;13.99;60.06
70954;BME280;58618;47.490;8.736;2023-03-20T12:09:44;96970.78;;;13.63;64.88
70954;BME280;58618;47.490;8.736;2023-03-20T12:12:36;96965.66;;;13.76;62.70
70954;BME280;58618;47.490;8.736;2023-03-20T12:15:28;96972.03;;;13.65;63.86
70954;BME280;58618;47.490;8.736;2023-03-20T12:18:24;96961.56;;;14.08;61.45
70954;BME280;58618;47.490;8.736;2023-03-20T12:21:17;96959.31;;;14.20;58.99
70954;BME280;58618;47.490;8.736;2023-03-20T12:24:10;96962.44;;;13.84;63.27
70954;BME280;58618;47.490;8.736;2023-03-20T12:27:10;96960.59;;;14.04;62.55
70954;BME280;58618;47.490;8.736;2023-03-20T12:30:05;96953.03;;;13.88;60.68
70954;BME280;58618;47.490;8.736;2023-03-20T12:32:59;96948.34;;;13.90;62.49
70954;BME280;58618;47.490;8.736;2023-03-20T12:35:53;96940.38;;;14.19;60.65
70954;BME280;58618;47.490;8.736;2023-03-20T12:38:41;96935.38;;;14.23;60.96
70954;BME280;58618;47.490;8.736;2023-03-20T12:41:37;96936.34;;;14.59;57.13
70954;BME280;58618;47.490;8.736;2023-03-20T12:44:33;96922.56;;;14.13;57.71
70954;BME280;58618;47.490;8.736;2023-03-20T12:47:44;96933.88;;;14.03;61.33
70954;BME280;58618;47.490;8.736;2023-03-20T12:50:34;96939.13;;;14.17;60.79
70954;BME280;58618;47.490;8.736;2023-03-20T12:53:34;96927.59;;;14.23;57.04
70954;BME280;58618;47.490;8.736;2023-03-20T12:56:39;96923.78;;;14.34;59.04
70954;BME280;58618;47.490;8.736;2023-03-20T12:59:39;96927.41;;;14.33;57.90
70954;BME280;58618;47.490;8.736;2023-03-20T13:02:33;96926.19;;;13.98;58.43
70954;BME280;58618;47.490;8.736;2023-03-20T13:05:32;96931.16;;;13.94;56.19
70954;BME280;58618;47.490;8.736;2023-03-20T13:08:36;96931.72;;;13.91;57.70
70954;BME280;58618;47.490;8.736;2023-03-20T13:11:28;96921.84;;;14.26;57.60
70954;BME280;58618;47.490;8.736;2023-03-20T13:14:23;96926.88;;;14.36;58.27
70954;BME280;58618;47.490;8.736;2023-03-20T13:17:17;96910.88;;;14.29;55.97
70954;BME280;58618;47.490;8.736;2023-03-20T13:20:20;96918.75;;;14.24;55.64
70954;BME280;58618;47.490;8.736;2023-03-20T13:23:18;96919.09;;;14.04;57.01
70954;BME280;58618;47.490;8.736;2023-03-20T13:26:22;96909.13;;;14.11;57.93
70954;BME280;58618;47.490;8.736;2023-03-20T13:29:15;96912.69;;;14.47;55.39
70954;BME280;58618;47.490;8.736;2023-03-20T13:32:15;96914.78;;;14.45;57.60
70954;BME280;58618;47.490;8.736;2023-03-20T13:35:20;96918.47;;;14.58;56.59
70954;BME280;58618;47.490;8.736;2023-03-20T13:38:14;96912.94;;;14.32;57.99
70954;BME280;58618;47.490;8.736;2023-03-20T13:41:06;96897.63;;;14.30;56.36
70954;BME280;58618;47.490;8.736;2023-03-20T13:43:58;96906.81;;;14.23;57.54
70954;BME280;58618;47.490;8.736;2023-03-20T13:46:49;96898.97;;;14.28;56.87
70954;BME280;58618;47.490;8.736;2023-03-20T13:49:40;96900.59;;;13.91;56.75
70954;BME280;58618;47.490;8.736;2023-03-20T13:52:33;96897.44;;;14.27;56.39
70954;BME280;58618;47.490;8.736;2023-03-20T13:55:30;96900.13;;;14.22;57.66
70954;BME280;58618;47.490;8.736;2023-03-20T13:58:36;96892.63;;;14.34;54.25
70954;BME280;58618;47.490;8.736;2023-03-20T14:01:34;96889.50;;;14.05;57.66
70954;BME280;58618;47.490;8.736;2023-03-20T14:04:25;96888.38;;;14.11;55.21
70954;BME280;58618;47.490;8.736;2023-03-20T14:07:28;96886.69;;;13.13;56.87
70954;BME280;58618;47.490;8.736;2023-03-20T14:10:35;96881.97;;;13.89;57.00
70954;BME280;58618;47.490;8.736;2023-03-20T14:13:23;96881.41;;;13.92;57.07
70954;BME280;58618;47.490;8.736;2023-03-20T14:16:13;96880.00;;;13.81;57.16
70954;BME280;58618;47.490;8.736;2023-03-20T14:19:07;96871.53;;;13.76;57.86
70954;BME280;58618;47.490;8.736;2023-03-20T14:21:55;96866.03;;;13.96;58.18
70954;BME280;58618;47.490;8.736;2023-03-20T14:24:50;96857.66;;;13.53;58.32
70954;BME280;58618;47.490;8.736;2023-03-20T14:27:52;96853.59;;;13.47;60.19
70954;BME280;58618;47.490;8.736;2023-03-20T14:30:42;96856.41;;;13.32;58.08
70954;BME280;58618;47.490;8.736;2023-03-20T14:33:30;96865.13;;;13.54;58.63
70954;BME280;58618;47.490;8.736;2023-03-20T14:36:20;96865.13;;;13.54;58.34
70954;BME280;58618;47.490;8.736;2023-03-20T14:39:21;96844.25;;;13.08;61.08
70954;BME280;58618;47.490;8.736;2023-03-20T14:42:25;96855.47;;;13.41;57.91
70954;BME280;58618;47.490;8.736;2023-03-20T14:45:30;96852.31;;;13.26;60.16
70954;BME280;58618;47.490;8.736;2023-03-20T14:48:27;96850.06;;;13.38;59.43
70954;BME280;58618;47.490;8.736;2023-03-20T14:51:26;96847.03;;;13.68;56.25
70954;BME280;58618;47.490;8.736;2023-03-20T14:54:25;96839.81;;;13.65;55.52
70954;BME280;58618;47.490;8.736;2023-03-20T14:57:17;96841.09;;;13.49;56.66
70954;BME280;58618;47.490;8.736;2023-03-20T15:00:16;96825.44;;;13.40;56.00
70954;BME280;58618;47.490;8.736;2023-03-20T15:03:07;96832.44;;;13.40;55.85
70954;BME280;58618;47.490;8.736;2023-03-20T15:05:56;96836.00;;;13.25;57.88
70954;BME280;58618;47.490;8.736;2023-03-20T15:08:48;96830.19;;;13.33;56.35
70954;BME280;58618;47.490;8.736;2023-03-20T15:11:36;96818.78;;;13.34;56.56
70954;BME280;58618;47.490;8.736;2023-03-20T15:14:26;96818.97;;;13.38;56.56
70954;BME280;58618;47.490;8.736;2023-03-20T15:17:19;96824.88;;;13.25;59.53